createdAt,value
2022-11-17T00:00:08.916Z,8.02
2022-11-17T00:02:36.585Z,6.25
2022-11-17T00:05:03.457Z,8.90
2022-11-17T00:07:30.671Z,4.60
2022-11-17T00:09:57.342Z,3.88
2022-11-17T00:12:42.482Z,9.75
2022-11-17T00:15:09.243Z,10.98
2022-11-17T00:17:35.948Z,4.53
2022-11-17T00:20:21.202Z,7.60
2022-11-17T00:22:48.190Z,5.20
2022-11-17T00:25:14.795Z,7.35
2022-11-17T00:27:41.619Z,6.78
2022-11-17T00:30:08.952Z,5.35
2022-11-17T00:32:54.251Z,7.50
2022-11-17T00:35:20.877Z,6.68
2022-11-17T00:38:06.019Z,8.65
2022-11-17T00:40:32.659Z,4.55
2022-11-17T00:42:59.256Z,6.82
2022-11-17T00:45:25.876Z,4.80
2022-11-17T00:47:52.543Z,9.20
2022-11-17T00:50:19.168Z,6.30
2022-11-17T00:52:45.789Z,3.45
2022-11-17T00:55:12.446Z,8.20
2022-11-17T00:57:39.082Z,7.20
2022-11-17T01:00:06.306Z,4.45
2022-11-17T01:02:32.935Z,5.97
2022-11-17T01:04:59.586Z,4.72
2022-11-17T01:07:26.308Z,6.35
2022-11-17T01:09:52.975Z,3.78
2022-11-17T01:12:19.603Z,4.25
2022-11-17T01:14:46.738Z,10.13
2022-11-17T01:17:13.407Z,3.97
2022-11-17T01:19:40.053Z,6.85
2022-11-17T01:22:06.772Z,7.60
2022-11-17T01:24:34.262Z,5.82
2022-11-17T01:27:00.864Z,6.57
2022-11-17T01:29:27.499Z,4.95
2022-11-17T01:31:54.097Z,7.25
2022-11-17T01:34:20.738Z,9.50
2022-11-17T01:37:06.071Z,3.83
2022-11-17T01:39:32.724Z,3.92
2022-11-17T01:42:04.524Z,7.28
2022-11-17T01:45:02.138Z,6.32
2022-11-17T01:47:35.053Z,5.18
2022-11-17T01:50:50.419Z,3.78
2022-11-17T01:53:20.030Z,2.50
2022-11-17T01:55:51.691Z,6.68
2022-11-17T01:58:21.745Z,5.13
2022-11-17T02:00:48.484Z,7.63
2022-11-17T02:03:15.243Z,7.20
2022-11-17T02:05:49.550Z,3.75
2022-11-17T02:08:16.315Z,4.45
2022-11-17T02:10:48.590Z,4.32
2022-11-17T02:13:19.043Z,5.15
2022-11-17T02:15:45.756Z,2.55
2022-11-17T02:18:12.563Z,7.03
2022-11-17T02:21:24.254Z,6.10
2022-11-17T02:24:08.166Z,5.95
2022-11-17T02:27:05.743Z,4.80
2022-11-17T02:29:57.443Z,6.07
2022-11-17T02:32:35.736Z,5.40
2022-11-17T02:35:19.678Z,3.97
2022-11-17T02:37:55.166Z,7.80
2022-11-17T02:40:29.489Z,4.35
2022-11-17T02:43:22.745Z,4.85
2022-11-17T02:45:54.343Z,6.47
2022-11-17T02:48:28.108Z,4.50
2022-11-17T02:50:55.133Z,6.32
2022-11-17T02:53:24.424Z,1.85
2022-11-17T02:55:54.290Z,4.93
2022-11-17T02:58:21.495Z,3.80
2022-11-17T03:01:17.288Z,5.35
2022-11-17T03:04:07.528Z,3.95
2022-11-17T03:06:52.572Z,5.10
2022-11-17T03:09:25.904Z,4.32
2022-11-17T03:12:15.086Z,4.38
2022-11-17T03:14:50.728Z,4.55
2022-11-17T03:17:31.605Z,2.83
2022-11-17T03:20:18.405Z,7.93
2022-11-17T03:23:05.084Z,3.67
2022-11-17T03:25:33.696Z,3.25
2022-11-17T03:28:04.370Z,3.70
2022-11-17T03:30:37.311Z,5.65
2022-11-17T03:33:09.422Z,3.80
2022-11-17T03:35:39.206Z,3.65
2022-11-17T03:38:10.340Z,3.33
2022-11-17T03:40:40.061Z,1.33
2022-11-17T03:43:08.123Z,1.65
2022-11-17T03:45:36.157Z,4.72
2022-11-17T03:48:16.945Z,6.97
2022-11-17T03:50:52.145Z,4.75
2022-11-17T03:53:18.867Z,2.53
2022-11-17T03:56:07.412Z,3.45
2022-11-17T03:58:35.245Z,3.67
2022-11-17T04:01:03.347Z,2.22
2022-11-17T04:03:32.132Z,2.38
2022-11-17T04:05:59.034Z,2.72
2022-11-17T04:08:29.481Z,1.67
2022-11-17T04:11:17.709Z,1.45
2022-11-17T04:14:03.055Z,2.88
2022-11-17T04:16:29.732Z,2.97
2022-11-17T04:18:59.003Z,3.17
2022-11-17T04:21:26.073Z,1.23
2022-11-17T04:23:52.813Z,1.05
2022-11-17T04:26:38.082Z,2.55
2022-11-17T04:29:04.708Z,3.00
2022-11-17T04:31:31.789Z,3.78
2022-11-17T04:34:00.173Z,2.53
2022-11-17T04:36:36.618Z,1.65
2022-11-17T04:39:03.971Z,2.35
2022-11-17T04:41:49.738Z,1.00
2022-11-17T04:44:17.535Z,2.33
2022-11-17T04:46:45.797Z,1.08
2022-11-17T04:49:13.650Z,1.48
2022-11-17T04:51:40.431Z,0.82
2022-11-17T04:54:08.206Z,1.05
2022-11-17T04:56:35.799Z,1.23
2022-11-17T04:59:02.460Z,1.10
2022-11-17T05:01:31.766Z,1.83
2022-11-17T05:04:00.328Z,0.93
2022-11-17T05:06:35.055Z,1.15
2022-11-17T05:09:04.534Z,2.25
2022-11-17T05:11:50.259Z,1.33
2022-11-17T05:14:20.240Z,4.70
2022-11-17T05:17:09.447Z,2.80
2022-11-17T05:19:45.468Z,1.90
2022-11-17T05:22:36.725Z,1.55
2022-11-17T05:25:04.731Z,1.27
2022-11-17T05:27:31.585Z,2.63
2022-11-17T05:29:58.331Z,2.05
2022-11-17T05:32:25.179Z,1.30
2022-11-17T05:34:52.080Z,1.05
2022-11-17T05:37:18.839Z,2.92
2022-11-17T05:39:45.520Z,2.15
2022-11-17T05:42:12.152Z,1.48
2022-11-17T05:44:40.034Z,3.20
2022-11-17T05:47:06.863Z,1.58
2022-11-17T05:49:33.503Z,1.23
2022-11-17T05:52:00.170Z,1.10
2022-11-17T05:54:27.016Z,6.50
2022-11-17T05:57:04.139Z,2.60
2022-11-17T05:59:35.786Z,1.20
2022-11-17T06:02:07.076Z,1.10
2022-11-17T06:04:34.769Z,3.08
2022-11-17T06:07:02.003Z,1.77
2022-11-17T06:09:32.115Z,1.27
2022-11-17T06:12:04.316Z,3.22
2022-11-17T06:14:32.714Z,1.88
2022-11-17T06:17:03.337Z,3.33
2022-11-17T06:19:35.931Z,1.85
2022-11-17T06:22:12.221Z,1.88
2022-11-17T06:24:41.148Z,6.05
2022-11-17T06:27:07.796Z,1.52
2022-11-17T06:29:38.190Z,2.15
2022-11-17T06:32:07.729Z,6.75
2022-11-17T06:34:35.021Z,2.78
2022-11-17T06:37:01.758Z,3.92
2022-11-17T06:39:28.379Z,4.80
2022-11-17T06:41:55.045Z,2.53
2022-11-17T06:44:21.725Z,2.75
2022-11-17T06:46:49.304Z,4.53
2022-11-17T06:49:16.135Z,3.95
2022-11-17T06:51:45.374Z,3.15
2022-11-17T06:54:14.646Z,5.25
2022-11-17T06:56:42.067Z,3.85
2022-11-17T06:59:08.708Z,4.45
2022-11-17T07:01:35.484Z,2.00
2022-11-17T07:04:02.220Z,2.83
2022-11-17T07:06:28.888Z,3.20
2022-11-17T07:08:55.575Z,5.30
2022-11-17T07:11:22.181Z,3.25
2022-11-17T07:13:48.842Z,5.70
2022-11-17T07:16:22.920Z,5.28
2022-11-17T07:18:50.667Z,3.20
2022-11-17T07:21:18.028Z,5.18
2022-11-17T07:23:45.697Z,5.90
2022-11-17T07:26:12.429Z,3.20
2022-11-17T07:28:40.312Z,5.55
2022-11-17T07:31:08.733Z,4.05
2022-11-17T07:33:35.616Z,5.60
2022-11-17T07:36:11.028Z,3.40
2022-11-17T07:38:39.843Z,6.63
2022-11-17T07:41:08.729Z,5.32
2022-11-17T07:43:36.210Z,8.52
2022-11-17T07:46:07.421Z,5.03
2022-11-17T07:48:34.603Z,4.63
2022-11-17T07:51:03.057Z,6.40
2022-11-17T07:53:31.581Z,3.92
2022-11-17T07:56:06.719Z,3.97
2022-11-17T07:58:33.756Z,11.50
2022-11-17T08:01:08.229Z,3.47
2022-11-17T08:03:35.136Z,7.85
2022-11-17T08:06:06.200Z,5.13
2022-11-17T08:08:33.952Z,6.38
2022-11-17T08:11:05.951Z,3.88
2022-11-17T08:13:33.311Z,3.88
2022-11-17T08:16:00.306Z,8.15
2022-11-17T08:18:27.901Z,3.72
2022-11-17T08:21:02.432Z,5.28
2022-11-17T08:23:29.187Z,6.75
2022-11-17T08:25:55.851Z,7.70
2022-11-17T08:28:22.664Z,3.70
2022-11-17T08:30:49.452Z,3.90
2022-11-17T08:33:16.241Z,5.63
2022-11-17T08:35:42.899Z,4.95
2022-11-17T08:38:11.644Z,2.78
2022-11-17T08:40:38.715Z,5.25
2022-11-17T08:43:08.341Z,1.83
2022-11-17T08:45:34.976Z,1.58
2022-11-17T08:48:01.610Z,5.30
2022-11-17T08:50:28.314Z,1.27
2022-11-17T08:52:54.985Z,3.28
2022-11-17T08:55:21.687Z,3.15
2022-11-17T08:57:48.393Z,1.77
2022-11-17T09:00:16.362Z,1.80
2022-11-17T09:02:43.082Z,1.90
2022-11-17T09:05:09.829Z,3.22
2022-11-17T09:07:36.561Z,5.65
2022-11-17T09:10:09.366Z,10.73
2022-11-17T09:12:36.040Z,4.25
2022-11-17T09:15:02.838Z,2.00
2022-11-17T09:17:31.091Z,1.80
2022-11-17T09:19:57.782Z,2.75
2022-11-17T09:22:24.455Z,3.22
2022-11-17T09:24:51.088Z,3.35
2022-11-17T09:27:17.863Z,3.22
2022-11-17T09:29:44.526Z,2.95
2022-11-17T09:32:11.228Z,5.72
2022-11-17T09:34:37.894Z,1.55
2022-11-17T09:37:04.583Z,2.75
2022-11-17T09:39:31.187Z,2.28
2022-11-17T09:41:57.962Z,2.90
2022-11-17T09:44:40.351Z,8.77
2022-11-17T09:47:22.027Z,1.50
2022-11-17T09:49:52.192Z,4.95
2022-11-17T09:52:56.554Z,9.50
2022-11-17T09:55:35.202Z,2.38
2022-11-17T09:58:24.378Z,3.50
2022-11-17T10:00:52.836Z,4.28
2022-11-17T10:03:21.438Z,6.15
2022-11-17T10:05:49.199Z,2.90
2022-11-17T10:08:25.321Z,3.05
2022-11-17T10:10:52.094Z,7.68
2022-11-17T10:13:21.693Z,3.00
2022-11-17T10:15:50.679Z,1.77
2022-11-17T10:18:17.406Z,2.42
2022-11-17T10:20:45.378Z,4.55
2022-11-17T10:23:19.364Z,4.22
2022-11-17T10:25:48.082Z,4.97
2022-11-17T10:28:31.111Z,2.63
2022-11-17T10:31:03.742Z,9.07
2022-11-17T10:33:39.549Z,17.52
2022-11-17T10:36:28.948Z,5.75
2022-11-17T10:38:59.705Z,4.63
2022-11-17T10:41:42.240Z,3.80
2022-11-17T10:44:22.245Z,4.43
2022-11-17T10:47:01.661Z,2.15
2022-11-17T10:49:33.274Z,3.13
2022-11-17T10:52:16.966Z,2.38
2022-11-17T10:54:43.901Z,2.17
2022-11-17T10:57:20.463Z,2.03
2022-11-17T10:59:56.521Z,4.57
2022-11-17T11:02:38.306Z,3.45
2022-11-17T11:05:14.116Z,1.15
2022-11-17T11:07:41.111Z,2.08
2022-11-17T11:10:27.913Z,2.92
2022-11-17T11:13:10.625Z,2.45
2022-11-17T11:15:37.406Z,1.15
2022-11-17T11:18:15.314Z,2.78
2022-11-17T11:21:04.641Z,0.82
2022-11-17T11:24:08.913Z,2.53
2022-11-17T11:26:59.413Z,1.50
2022-11-17T11:29:29.190Z,1.67
2022-11-17T11:32:17.683Z,2.28
2022-11-17T11:35:24.799Z,1.70
2022-11-17T11:38:19.327Z,2.63
2022-11-17T11:41:04.759Z,3.22
2022-11-17T11:43:44.821Z,1.10
2022-11-17T11:46:35.025Z,1.95
2022-11-17T11:49:26.407Z,0.88
2022-11-17T11:51:53.217Z,1.88
2022-11-17T11:54:31.515Z,2.55
2022-11-17T11:56:58.441Z,1.23
2022-11-17T12:00:03.747Z,5.72
2022-11-17T12:02:41.961Z,2.20
2022-11-17T12:05:42.028Z,4.70
2022-11-17T12:08:31.310Z,1.10
2022-11-17T12:11:23.684Z,1.35
2022-11-17T12:13:54.205Z,1.65
2022-11-17T12:16:36.979Z,3.35
2022-11-17T12:19:42.400Z,0.90
2022-11-17T12:22:09.623Z,2.38
2022-11-17T12:24:40.712Z,2.05
2022-11-17T12:27:35.528Z,1.95
2022-11-17T12:30:04.670Z,1.40
2022-11-17T12:32:46.509Z,1.83
2022-11-17T12:35:36.778Z,1.15
2022-11-17T12:38:15.633Z,0.82
2022-11-17T12:40:54.873Z,2.45
2022-11-17T12:43:22.817Z,2.75
2022-11-17T12:45:52.428Z,1.25
2022-11-17T12:48:39.856Z,2.65
2022-11-17T12:51:17.508Z,2.28
2022-11-17T12:54:05.291Z,2.63
2022-11-17T12:56:47.343Z,5.10
2022-11-17T12:59:35.835Z,19.13
2022-11-17T13:02:16.055Z,4.75
2022-11-17T13:04:52.871Z,2.28
2022-11-17T13:07:21.844Z,2.78
2022-11-17T13:09:53.698Z,4.53
2022-11-17T13:12:29.013Z,2.40
2022-11-17T13:15:03.815Z,1.67
2022-11-17T13:17:39.834Z,2.70
2022-11-17T13:20:27.499Z,1.35
2022-11-17T13:23:06.704Z,3.53
2022-11-17T13:25:34.402Z,2.25
2022-11-17T13:28:04.809Z,1.45
2022-11-17T13:30:32.809Z,1.17
2022-11-17T13:33:02.129Z,3.40
2022-11-17T13:35:33.505Z,6.85
2022-11-17T13:38:23.761Z,3.03
2022-11-17T13:40:52.195Z,1.95
2022-11-17T13:43:23.640Z,2.08
2022-11-17T13:45:52.619Z,3.05
2022-11-17T13:48:36.844Z,3.70
2022-11-17T13:51:25.437Z,3.25
2022-11-17T13:54:18.737Z,2.25
2022-11-17T13:56:54.762Z,3.60
2022-11-17T13:59:27.341Z,1.92
2022-11-17T14:02:22.068Z,2.10
2022-11-17T14:05:08.939Z,1.20
2022-11-17T14:07:37.991Z,2.28
2022-11-17T14:10:19.859Z,6.30
2022-11-17T14:12:50.789Z,1.58
2022-11-17T14:15:31.665Z,2.22
2022-11-17T14:18:05.753Z,2.15
2022-11-17T14:20:35.072Z,1.45
2022-11-17T14:23:08.498Z,3.85
2022-11-17T14:25:38.232Z,2.78
2022-11-17T14:28:05.283Z,2.22
2022-11-17T14:30:32.023Z,2.17
2022-11-17T14:33:06.349Z,2.42
2022-11-17T14:35:37.362Z,5.28
2022-11-17T14:38:04.317Z,4.28
2022-11-17T14:40:31.091Z,2.92
2022-11-17T14:42:57.718Z,2.33
2022-11-17T14:45:30.696Z,2.42
2022-11-17T14:47:57.343Z,1.90
2022-11-17T14:50:26.171Z,8.32
2022-11-17T14:52:53.072Z,4.22
2022-11-17T14:55:21.881Z,1.55
2022-11-17T14:57:48.780Z,2.58
2022-11-17T15:00:20.554Z,2.20
2022-11-17T15:02:47.943Z,1.48
2022-11-17T15:05:15.233Z,6.57
2022-11-17T15:07:42.791Z,2.03
2022-11-17T15:10:10.119Z,7.38
2022-11-17T15:12:36.885Z,2.58
2022-11-17T15:15:05.040Z,5.07
2022-11-17T15:17:31.828Z,2.75
2022-11-17T15:19:58.809Z,5.60
2022-11-17T15:22:25.688Z,2.90
2022-11-17T15:24:52.762Z,7.47
2022-11-17T15:27:19.432Z,6.07
2022-11-17T15:29:46.123Z,6.93
2022-11-17T15:32:12.740Z,5.65
2022-11-17T15:34:39.450Z,5.18
2022-11-17T15:37:06.375Z,9.10
2022-11-17T15:39:33.119Z,4.35
2022-11-17T15:41:59.810Z,6.32
2022-11-17T15:44:26.462Z,4.85
2022-11-17T15:46:53.067Z,5.90
2022-11-17T15:49:19.832Z,9.30
2022-11-17T15:51:50.225Z,5.53
2022-11-17T15:54:20.701Z,4.35
2022-11-17T15:56:47.927Z,4.85
2022-11-17T15:59:15.210Z,7.88
2022-11-17T16:01:42.131Z,4.40
2022-11-17T16:04:15.479Z,9.82
2022-11-17T16:06:43.342Z,3.88
2022-11-17T16:09:10.244Z,2.85
2022-11-17T16:11:37.904Z,3.40
2022-11-17T16:14:05.234Z,4.07
2022-11-17T16:16:34.419Z,3.60
2022-11-17T16:19:01.159Z,2.70
2022-11-17T16:21:28.335Z,3.00
2022-11-17T16:23:56.874Z,6.32
2022-11-17T16:26:25.201Z,3.85
2022-11-17T16:29:00.805Z,7.25
2022-11-17T16:31:30.093Z,7.95
2022-11-17T16:34:05.242Z,8.20
2022-11-17T16:36:36.626Z,5.65
2022-11-17T16:39:05.466Z,8.52
2022-11-17T16:41:34.779Z,10.05
2022-11-17T16:44:01.919Z,6.32
2022-11-17T16:46:31.310Z,8.55
2022-11-17T16:49:12.562Z,6.95
2022-11-17T16:51:39.923Z,6.45
2022-11-17T16:54:10.558Z,9.57
2022-11-17T16:56:37.212Z,7.38
2022-11-17T16:59:04.279Z,4.40
2022-11-17T17:01:35.517Z,7.85
2022-11-17T17:04:04.676Z,6.75
2022-11-17T17:06:31.487Z,8.60
2022-11-17T17:09:00.147Z,7.28
2022-11-17T17:11:29.206Z,6.85
2022-11-17T17:13:56.620Z,5.10
2022-11-17T17:16:23.608Z,7.70
2022-11-17T17:18:56.829Z,5.97
2022-11-17T17:21:24.801Z,5.57
2022-11-17T17:23:55.480Z,6.28
2022-11-17T17:26:25.865Z,6.60
2022-11-17T17:28:55.460Z,4.57
2022-11-17T17:31:23.280Z,10.27
2022-11-17T17:33:51.346Z,5.95
2022-11-17T17:36:23.498Z,5.50
2022-11-17T17:38:55.424Z,10.88
2022-11-17T17:41:24.988Z,9.45
2022-11-17T17:44:00.844Z,9.75
2022-11-17T17:46:30.821Z,8.05
2022-11-17T17:48:58.035Z,8.23
2022-11-17T17:51:27.852Z,8.13
2022-11-17T17:53:57.798Z,7.40
2022-11-17T17:56:24.632Z,6.97
2022-11-17T17:58:57.026Z,9.68
2022-11-17T18:01:27.668Z,8.07
2022-11-17T18:04:04.479Z,5.43
2022-11-17T18:06:35.990Z,7.90
2022-11-17T18:09:03.585Z,6.43
2022-11-17T18:11:50.545Z,5.93
2022-11-17T18:14:23.827Z,5.20
2022-11-17T18:16:53.052Z,7.82
2022-11-17T18:19:32.586Z,7.90
2022-11-17T18:22:01.230Z,11.52
2022-11-17T18:24:28.338Z,5.20
2022-11-17T18:26:54.967Z,9.50
2022-11-17T18:29:22.159Z,10.15
2022-11-17T18:31:49.474Z,9.68
2022-11-17T18:34:28.166Z,13.10
2022-11-17T18:36:55.948Z,14.43
2022-11-17T18:39:23.608Z,14.90
2022-11-17T18:41:50.635Z,12.93
2022-11-17T18:44:19.593Z,11.32
2022-11-17T18:46:46.810Z,11.23
2022-11-17T18:49:14.328Z,8.85
2022-11-17T18:51:42.700Z,13.35
2022-11-17T18:54:10.808Z,15.23
2022-11-17T18:56:37.810Z,10.52
2022-11-17T18:59:11.358Z,7.75
2022-11-17T19:01:39.918Z,15.70
2022-11-17T19:04:07.714Z,7.18
2022-11-17T19:06:34.875Z,16.33
2022-11-17T19:09:01.697Z,10.68
2022-11-17T19:11:31.413Z,7.68
2022-11-17T19:13:59.155Z,6.82
2022-11-17T19:16:26.342Z,12.68
2022-11-17T19:18:55.133Z,12.32
2022-11-17T19:21:25.605Z,12.43
2022-11-17T19:23:53.248Z,7.60
2022-11-17T19:26:25.765Z,9.93
2022-11-17T19:29:09.884Z,9.00
2022-11-17T19:31:39.584Z,11.27
2022-11-17T19:34:11.581Z,9.82
2022-11-17T19:36:40.312Z,13.60
2022-11-17T19:39:07.000Z,12.25
2022-11-17T19:41:35.987Z,15.38
2022-11-17T19:44:05.109Z,12.52
2022-11-17T19:46:32.390Z,16.38
2022-11-17T19:48:59.443Z,10.88
2022-11-17T19:51:30.804Z,9.65
2022-11-17T19:54:00.372Z,16.02
2022-11-17T19:56:27.145Z,11.90
2022-11-17T19:58:55.511Z,10.82
2022-11-17T20:01:24.537Z,7.40
2022-11-17T20:03:51.919Z,9.38
2022-11-17T20:06:20.415Z,12.40
2022-11-17T20:08:48.333Z,9.75
2022-11-17T20:11:20.120Z,12.55
2022-11-17T20:13:46.995Z,6.40
2022-11-17T20:16:16.089Z,14.02
2022-11-17T20:18:43.553Z,17.05
2022-11-17T20:21:11.136Z,15.65
2022-11-17T20:23:38.795Z,19.77
2022-11-17T20:26:13.930Z,15.15
2022-11-17T20:28:41.041Z,14.45
2022-11-17T20:31:10.125Z,10.23
2022-11-17T20:33:39.044Z,9.23
2022-11-17T20:36:06.947Z,13.88
2022-11-17T20:38:34.071Z,10.70
2022-11-17T20:41:00.865Z,8.10
2022-11-17T20:43:28.276Z,10.32
2022-11-17T20:46:09.790Z,15.13
2022-11-17T20:48:36.533Z,8.52
2022-11-17T20:51:20.884Z,6.80
2022-11-17T20:53:47.940Z,10.02
2022-11-17T20:56:18.424Z,13.40
2022-11-17T20:58:45.608Z,12.48
2022-11-17T21:01:15.028Z,13.90
2022-11-17T21:03:42.712Z,9.38
2022-11-17T21:06:10.243Z,13.93
2022-11-17T21:08:38.615Z,12.95
2022-11-17T21:11:36.564Z,10.85
2022-11-17T21:14:07.729Z,14.13
2022-11-17T21:16:34.918Z,14.35
2022-11-17T21:19:01.515Z,17.45
2022-11-17T21:21:28.383Z,14.18
2022-11-17T21:23:58.258Z,20.27
2022-11-17T21:26:25.000Z,17.40
2022-11-17T21:28:54.663Z,24.25
2022-11-17T21:31:26.473Z,21.25
2022-11-17T21:33:58.499Z,17.83
2022-11-17T21:36:26.826Z,16.05
2022-11-17T21:38:54.490Z,22.23
2022-11-17T21:41:23.529Z,19.83
2022-11-17T21:43:51.221Z,20.27
2022-11-17T21:46:24.671Z,18.85
2022-11-17T21:48:52.778Z,21.88
2022-11-17T21:51:21.140Z,27.77
2022-11-17T21:53:51.486Z,25.65
2022-11-17T21:56:18.250Z,22.58
2022-11-17T21:58:45.033Z,23.52
2022-11-17T22:01:14.187Z,23.02
2022-11-17T22:03:45.827Z,27.17
2022-11-17T22:06:17.452Z,20.40
2022-11-17T22:08:45.024Z,24.15
2022-11-17T22:11:36.297Z,23.55
2022-11-17T22:14:09.382Z,22.45
2022-11-17T22:16:38.080Z,20.20
2022-11-17T22:19:05.700Z,18.55
2022-11-17T22:21:34.842Z,23.73
2022-11-17T22:24:15.449Z,16.20
2022-11-17T22:26:43.632Z,18.05
2022-11-17T22:29:18.520Z,18.10
2022-11-17T22:31:46.240Z,15.27
2022-11-17T22:34:13.366Z,15.43
2022-11-17T22:36:40.072Z,13.55
2022-11-17T22:39:06.669Z,14.07
2022-11-17T22:41:33.427Z,21.35
2022-11-17T22:44:00.481Z,17.17
2022-11-17T22:46:28.395Z,19.65
2022-11-17T22:48:55.177Z,17.88
2022-11-17T22:51:40.497Z,30.63
2022-11-17T22:54:08.662Z,19.90
2022-11-17T22:56:35.686Z,18.88
2022-11-17T22:59:02.426Z,13.77
2022-11-17T23:01:30.618Z,16.35
2022-11-17T23:03:57.335Z,14.95
2022-11-17T23:06:24.289Z,13.48
2022-11-17T23:08:50.958Z,21.23
2022-11-17T23:14:05.848Z,24.05
2022-11-17T23:16:33.144Z,19.63
2022-11-17T23:18:59.926Z,19.67
2022-11-17T23:21:26.644Z,19.92
2022-11-17T23:23:53.272Z,19.30
2022-11-17T23:26:19.977Z,16.65
2022-11-17T23:28:47.005Z,19.75
2022-11-17T23:31:15.456Z,17.27
2022-11-17T23:33:44.625Z,15.95
2022-11-17T23:36:20.204Z,19.60
2022-11-17T23:38:47.521Z,20.92
2022-11-17T23:41:16.298Z,17.88
2022-11-17T23:43:44.691Z,14.48
2022-11-17T23:46:17.195Z,16.13
2022-11-17T23:48:44.773Z,17.63
2022-11-17T23:51:13.389Z,12.40
2022-11-17T23:53:40.593Z,15.20
2022-11-17T23:56:09.863Z,16.75
2022-11-17T23:58:37.259Z,12.68
